Terminal Aerodrome Forecast
Issued by NWS Fort Wayne, IN

Home | Current Version | Previous Version | Text Only | Print | Product List | Glossary On
Versions: 1 2 3 4 5 6 7 8 9 10 11 12 13 14 15 16 17
000
FTUS43 KIWX 151700
TAFFWA
TAF
KFWA 151729Z 1518/1618 09020G30KT P6SM SCT250
     FM160100 08014KT P6SM BKN120
     FM160800 10010KT P6SM -SHRA OVC040
     FM161100 14009KT 5SM -SHRA BR OVC020=

USA.gov is the U.S. government's official web portal to all federal, state and local government web resources and services.